createdAt,value
2022-12-01T00:04:32.268Z,10.9
2022-12-01T00:10:16.221Z,10.8
2022-12-01T00:15:59.164Z,11.1
2022-12-01T00:21:42.281Z,10.8
2022-12-01T00:27:25.239Z,11.4
2022-12-01T00:33:08.248Z,11.3
2022-12-01T00:38:53.323Z,11.3
2022-12-01T00:44:36.319Z,10.7
2022-12-01T00:50:19.407Z,11.1
2022-12-01T00:56:02.349Z,11.5
2022-12-01T01:01:46.444Z,11.3
2022-12-01T01:07:31.452Z,11.4
2022-12-01T01:13:16.117Z,11
2022-12-01T01:18:59.183Z,11.3
2022-12-01T01:24:42.803Z,12
2022-12-01T01:30:25.977Z,11.4
2022-12-01T01:36:09.539Z,11.4
2022-12-01T01:41:52.600Z,11.2
2022-12-01T01:47:37.595Z,11.5
2022-12-01T01:53:20.712Z,11.5
2022-12-01T01:59:04.347Z,10.5
2022-12-01T02:04:48.325Z,10.9
2022-12-01T02:10:36.464Z,11
2022-12-01T02:16:22.563Z,11.4
2022-12-01T02:22:12.041Z,11.4
2022-12-01T02:28:03.753Z,10.9
2022-12-01T02:33:52.939Z,11.3
2022-12-01T02:39:39.879Z,10.6
2022-12-01T02:45:26.498Z,10.9
2022-12-01T02:51:13.192Z,10.4
2022-12-01T02:56:57.239Z,10.4
2022-12-01T03:02:45.508Z,11.1
2022-12-01T03:08:34.094Z,11.1
2022-12-01T03:14:23.534Z,10.9
2022-12-01T03:20:08.747Z,11
2022-12-01T03:25:54.021Z,10.9
2022-12-01T03:31:38.950Z,11.6
2022-12-01T03:37:25.013Z,11.6
2022-12-01T03:43:09.269Z,12
2022-12-01T03:48:52.770Z,11.6
2022-12-01T03:54:41.545Z,11.2
2022-12-01T04:00:24.694Z,11.6
2022-12-01T04:06:08.007Z,11.7
2022-12-01T04:11:50.616Z,12.2
2022-12-01T04:17:33.730Z,11.9
2022-12-01T04:23:17.013Z,12.2
2022-12-01T04:29:00.969Z,12.3
2022-12-01T04:34:43.954Z,12.2
2022-12-01T04:40:27.076Z,12.3
2022-12-01T04:46:10.830Z,12.4
2022-12-01T04:51:53.995Z,12.8
2022-12-01T04:57:36.913Z,12.4
2022-12-01T05:03:19.853Z,13.2
2022-12-01T05:09:03.293Z,12.7
2022-12-01T05:14:47.346Z,11.7
2022-12-01T05:20:30.559Z,12.5
2022-12-01T05:26:13.789Z,12.4
2022-12-01T05:31:56.869Z,12.1
2022-12-01T05:37:40.117Z,12.4
2022-12-01T05:43:30.640Z,12.4
2022-12-01T05:49:13.532Z,12.6
2022-12-01T05:54:57.589Z,11.6
2022-12-01T06:00:47.239Z,12.5
2022-12-01T06:06:31.316Z,12.3
2022-12-01T06:12:14.904Z,12.1
2022-12-01T06:18:00.326Z,12.3
2022-12-01T06:23:43.221Z,11.7
2022-12-01T06:29:26.297Z,11
2022-12-01T06:35:11.688Z,12
2022-12-01T06:41:00.699Z,11.9
2022-12-01T06:46:43.979Z,12
2022-12-01T06:52:27.113Z,11.9
2022-12-01T06:58:10.401Z,12.1
2022-12-01T07:03:53.717Z,11.9
2022-12-01T07:09:36.764Z,11.8
2022-12-01T07:15:20.207Z,11.4
2022-12-01T07:21:05.452Z,11.2
2022-12-01T07:26:48.408Z,11.7
2022-12-01T07:32:32.677Z,11.6
2022-12-01T07:38:23.304Z,11.5
2022-12-01T07:44:06.318Z,11.8
2022-12-01T07:49:50.631Z,11.6
2022-12-01T07:55:34.969Z,11.9
2022-12-01T08:01:20.825Z,11.3
2022-12-01T08:07:05.108Z,12.2
2022-12-01T08:12:49.066Z,12.3
2022-12-01T08:18:32.267Z,11.8
2022-12-01T08:24:16.265Z,11.9
2022-12-01T08:29:59.320Z,12.1
2022-12-01T08:35:42.512Z,11.6
2022-12-01T08:41:25.911Z,11.8
2022-12-01T08:47:10.155Z,11.6
2022-12-01T08:52:59.133Z,11.6
2022-12-01T08:58:42.283Z,11.4
2022-12-01T09:04:26.368Z,12.5
2022-12-01T09:10:10.144Z,11.2
2022-12-01T09:16:00.736Z,11.5
2022-12-01T09:21:44.190Z,12
2022-12-01T09:27:27.027Z,12.2
2022-12-01T09:33:11.076Z,11.6
2022-12-01T09:38:54.184Z,12
2022-12-01T09:44:40.369Z,11.8
2022-12-01T09:50:24.261Z,12.6
2022-12-01T09:56:14.085Z,12.4
2022-12-01T10:02:00.592Z,12.7
2022-12-01T10:07:46.373Z,11.8
2022-12-01T10:13:30.622Z,12
2022-12-01T10:19:17.095Z,12.1
2022-12-01T10:25:03.555Z,12.6
2022-12-01T10:30:50.846Z,12.1
2022-12-01T10:36:35.044Z,12
2022-12-01T10:42:20.955Z,13.2
2022-12-01T10:48:15.348Z,13.6
2022-12-01T10:54:08.024Z,12.8
2022-12-01T10:59:57.316Z,13
2022-12-01T11:05:42.590Z,13.1
2022-12-01T11:11:30.870Z,12.6
2022-12-01T11:17:26.269Z,12.9
2022-12-01T11:23:23.876Z,12.4
2022-12-01T11:29:08.645Z,11.8
2022-12-01T11:34:56.092Z,11.7
2022-12-01T11:40:43.940Z,11.3
2022-12-01T11:46:30.099Z,11.4
2022-12-01T11:52:24.504Z,10.6
2022-12-01T11:58:09.871Z,10.4
2022-12-01T12:03:58.055Z,11.3
2022-12-01T12:09:48.968Z,10
2022-12-01T12:15:38.791Z,10.1
2022-12-01T12:21:27.185Z,10.4
2022-12-01T12:27:14.169Z,9.7
2022-12-01T12:33:05.997Z,9.7
2022-12-01T12:38:55.908Z,9.8
2022-12-01T12:44:48.518Z,9.8
2022-12-01T12:50:36.475Z,10.3
2022-12-01T12:56:22.207Z,10.5
2022-12-01T13:02:10.185Z,9.3
2022-12-01T13:07:55.672Z,8.9
2022-12-01T13:13:42.462Z,9.3
2022-12-01T13:19:28.688Z,9
2022-12-01T13:25:13.332Z,8.8
2022-12-01T13:31:09.002Z,9
2022-12-01T13:36:56.174Z,8.7
2022-12-01T13:42:39.633Z,8.8
2022-12-01T13:48:37.303Z,8.5
2022-12-01T13:54:31.452Z,8.9
2022-12-01T14:00:26.119Z,8.6
2022-12-01T14:06:21.247Z,9.5
2022-12-01T14:12:05.554Z,8.5
2022-12-01T14:17:49.457Z,8.4
2022-12-01T14:23:33.859Z,8.3
2022-12-01T14:29:40.277Z,8.9
2022-12-01T14:35:23.378Z,8.6
2022-12-01T14:41:08.672Z,8.5
2022-12-01T14:46:54.963Z,8.5
2022-12-01T14:52:39.429Z,8.4
2022-12-01T14:58:23.761Z,8.3
2022-12-01T15:04:08.199Z,8.2
2022-12-01T15:10:03.528Z,8.4
2022-12-01T15:15:56.325Z,8.7
2022-12-01T15:21:39.654Z,8
2022-12-01T15:27:33.086Z,9
2022-12-01T15:33:32.813Z,9.1
2022-12-01T15:39:22.285Z,8.5
2022-12-01T15:45:10.224Z,8.8
2022-12-01T15:50:58.088Z,9.2
2022-12-01T15:56:42.596Z,8.8
2022-12-01T16:02:28.749Z,8.9
2022-12-01T16:08:20.378Z,9.3
2022-12-01T16:14:04.872Z,9.3
2022-12-01T16:19:47.731Z,9.2
2022-12-01T16:25:35.331Z,9.5
2022-12-01T16:31:23.854Z,9.8
2022-12-01T16:37:06.713Z,9.5
2022-12-01T16:42:51.350Z,9.9
2022-12-01T16:48:35.484Z,9.8
2022-12-01T16:54:18.626Z,10
2022-12-01T17:00:05.158Z,9.8
2022-12-01T17:05:49.057Z,10.3
2022-12-01T17:11:32.098Z,9.7
2022-12-01T17:17:14.945Z,10.6
2022-12-01T17:22:58.291Z,10.2
2022-12-01T17:28:42.332Z,10.9
2022-12-01T17:34:25.229Z,11.3
2022-12-01T17:40:09.424Z,59.9
2022-12-01T17:45:53.299Z,36.2
2022-12-01T17:51:37.464Z,30.8
2022-12-01T17:57:20.836Z,44.1
2022-12-01T18:03:05.161Z,37.8
2022-12-01T18:08:48.505Z,46.3
2022-12-01T18:14:31.474Z,32.5
2022-12-01T18:20:15.262Z,29.6
2022-12-01T18:25:58.342Z,28.9
2022-12-01T18:31:42.583Z,27.5
2022-12-01T18:37:25.630Z,26.8
2022-12-01T18:43:08.843Z,25.4
2022-12-01T18:48:52.824Z,25.1
2022-12-01T18:54:35.995Z,24.9
2022-12-01T19:00:42.461Z,23.4
2022-12-01T19:06:25.584Z,22.2
2022-12-01T19:12:09.157Z,21.6
2022-12-01T19:17:52.483Z,20.8
2022-12-01T19:23:35.934Z,20.3
2022-12-01T19:29:19.167Z,19.6
2022-12-01T19:35:02.177Z,19.8
2022-12-01T19:40:45.374Z,20.2
2022-12-01T19:46:28.772Z,19.6
2022-12-01T19:52:12.745Z,18.9
2022-12-01T19:57:55.755Z,18.5
2022-12-01T20:03:39.289Z,18.3
2022-12-01T20:09:22.347Z,17.2
2022-12-01T20:15:05.868Z,17.4
2022-12-01T20:20:49.862Z,17.1
2022-12-01T20:26:33.667Z,16.7
2022-12-01T20:32:24.568Z,16.6
2022-12-01T20:38:07.825Z,16.3
2022-12-01T20:43:51.917Z,15.8
2022-12-01T20:49:34.950Z,16.3
2022-12-01T20:55:19.498Z,16
2022-12-01T21:01:08.200Z,15.5
2022-12-01T21:06:51.299Z,15.6
2022-12-01T21:12:34.408Z,15.8
2022-12-01T21:18:21.216Z,14.9
2022-12-01T21:24:12.796Z,15
2022-12-01T21:29:56.922Z,15.3
2022-12-01T21:35:39.922Z,15.9
2022-12-01T21:41:26.114Z,14.5
2022-12-01T21:47:15.344Z,14.5
2022-12-01T21:52:59.498Z,15.1
2022-12-01T21:58:42.571Z,14.8
2022-12-01T22:04:27.487Z,15.5
2022-12-01T22:10:23.617Z,14.3
2022-12-01T22:16:11.491Z,14.1
2022-12-01T22:21:59.143Z,15.6
2022-12-01T22:27:43.623Z,14.1
2022-12-01T22:33:35.532Z,15.2
2022-12-01T22:39:27.876Z,14.5
2022-12-01T22:45:18.695Z,14.9
2022-12-01T22:51:07.440Z,14.7
2022-12-01T22:56:51.744Z,14.8
2022-12-01T23:02:35.923Z,14.9
2022-12-01T23:08:23.734Z,14.8
2022-12-01T23:14:08.596Z,14.9
2022-12-01T23:19:52.244Z,14.8
2022-12-01T23:25:35.662Z,15.5
2022-12-01T23:31:18.844Z,14.7
2022-12-01T23:37:04.269Z,14.5
2022-12-01T23:42:47.295Z,15
2022-12-01T23:48:34.441Z,14.6
2022-12-01T23:54:18.447Z,14.7
